sensor_id;sensor_type;location;lat;lon;timestamp;P1;durP1;ratioP1;P2;durP2;ratioP2
34471;SDS011;20710;49.976;19.836;2022-12-07T00:00:22;23.85;;;13.10;;
34471;SDS011;20710;49.976;19.836;2022-12-07T00:06:26;22.22;;;13.48;;
34471;SDS011;20710;49.976;19.836;2022-12-07T00:12:28;24.32;;;14.07;;
34471;SDS011;20710;49.976;19.836;2022-12-07T00:18:29;23.77;;;15.35;;
34471;SDS011;20710;49.976;19.836;2022-12-07T00:24:31;26.73;;;13.90;;
34471;SDS011;20710;49.976;19.836;2022-12-07T00:30:32;27.27;;;13.18;;
34471;SDS011;20710;49.976;19.836;2022-12-07T00:36:34;27.75;;;16.55;;
34471;SDS011;20710;49.976;19.836;2022-12-07T00:42:36;29.90;;;17.45;;
34471;SDS011;20710;49.976;19.836;2022-12-07T00:48:37;34.83;;;17.05;;
34471;SDS011;20710;49.976;19.836;2022-12-07T00:54:39;31.33;;;17.57;;
34471;SDS011;20710;49.976;19.836;2022-12-07T01:00:42;26.50;;;15.28;;
34471;SDS011;20710;49.976;19.836;2022-12-07T01:06:44;25.12;;;14.47;;
34471;SDS011;20710;49.976;19.836;2022-12-07T01:12:46;26.77;;;13.98;;
34471;SDS011;20710;49.976;19.836;2022-12-07T01:18:48;25.05;;;13.55;;
34471;SDS011;20710;49.976;19.836;2022-12-07T01:24:52;21.62;;;14.43;;
34471;SDS011;20710;49.976;19.836;2022-12-07T01:30:58;22.60;;;13.15;;
34471;SDS011;20710;49.976;19.836;2022-12-07T01:37:06;23.73;;;13.68;;
34471;SDS011;20710;49.976;19.836;2022-12-07T01:43:17;24.12;;;14.30;;
34471;SDS011;20710;49.976;19.836;2022-12-07T01:49:21;26.17;;;15.43;;
34471;SDS011;20710;49.976;19.836;2022-12-07T01:55:45;28.85;;;15.65;;
34471;SDS011;20710;49.976;19.836;2022-12-07T02:01:50;31.57;;;18.83;;
34471;SDS011;20710;49.976;19.836;2022-12-07T02:07:55;27.67;;;15.58;;
34471;SDS011;20710;49.976;19.836;2022-12-07T02:13:57;31.93;;;17.10;;
34471;SDS011;20710;49.976;19.836;2022-12-07T02:20:33;29.80;;;16.32;;
34471;SDS011;20710;49.976;19.836;2022-12-07T02:26:38;28.15;;;16.70;;
34471;SDS011;20710;49.976;19.836;2022-12-07T02:39:12;25.77;;;13.45;;
34471;SDS011;20710;49.976;19.836;2022-12-07T02:45:25;23.30;;;13.55;;
34471;SDS011;20710;49.976;19.836;2022-12-07T02:51:30;24.23;;;12.65;;
34471;SDS011;20710;49.976;19.836;2022-12-07T03:04:26;25.12;;;13.55;;
34471;SDS011;20710;49.976;19.836;2022-12-07T03:10:47;24.63;;;13.22;;
34471;SDS011;20710;49.976;19.836;2022-12-07T03:17:05;25.35;;;14.38;;
34471;SDS011;20710;49.976;19.836;2022-12-07T03:23:12;32.15;;;15.45;;
34471;SDS011;20710;49.976;19.836;2022-12-07T03:29:18;26.70;;;14.87;;
34471;SDS011;20710;49.976;19.836;2022-12-07T03:35:29;30.37;;;16.07;;
34471;SDS011;20710;49.976;19.836;2022-12-07T03:41:40;33.13;;;17.57;;
34471;SDS011;20710;49.976;19.836;2022-12-07T03:47:53;27.80;;;15.93;;
34471;SDS011;20710;49.976;19.836;2022-12-07T03:54:41;28.23;;;16.42;;
34471;SDS011;20710;49.976;19.836;2022-12-07T04:00:43;35.30;;;19.70;;
34471;SDS011;20710;49.976;19.836;2022-12-07T04:06:47;32.33;;;20.25;;
34471;SDS011;20710;49.976;19.836;2022-12-07T04:12:52;36.83;;;21.35;;
34471;SDS011;20710;49.976;19.836;2022-12-07T04:18:54;35.20;;;21.48;;
34471;SDS011;20710;49.976;19.836;2022-12-07T04:24:58;38.10;;;20.05;;
34471;SDS011;20710;49.976;19.836;2022-12-07T04:31:01;29.82;;;17.75;;
34471;SDS011;20710;49.976;19.836;2022-12-07T04:37:04;30.43;;;16.55;;
34471;SDS011;20710;49.976;19.836;2022-12-07T04:43:07;21.07;;;13.32;;
34471;SDS011;20710;49.976;19.836;2022-12-07T04:49:09;23.70;;;12.88;;
34471;SDS011;20710;49.976;19.836;2022-12-07T04:55:13;26.70;;;16.35;;
34471;SDS011;20710;49.976;19.836;2022-12-07T05:01:15;27.87;;;15.35;;
34471;SDS011;20710;49.976;19.836;2022-12-07T05:07:20;25.48;;;16.80;;
34471;SDS011;20710;49.976;19.836;2022-12-07T05:13:21;22.10;;;14.13;;
34471;SDS011;20710;49.976;19.836;2022-12-07T05:19:23;21.87;;;13.45;;
34471;SDS011;20710;49.976;19.836;2022-12-07T05:25:26;22.67;;;14.03;;
34471;SDS011;20710;49.976;19.836;2022-12-07T05:31:29;19.62;;;12.73;;
34471;SDS011;20710;49.976;19.836;2022-12-07T05:37:31;18.87;;;11.48;;
34471;SDS011;20710;49.976;19.836;2022-12-07T05:43:34;18.15;;;11.97;;
34471;SDS011;20710;49.976;19.836;2022-12-07T05:49:38;22.00;;;13.50;;
34471;SDS011;20710;49.976;19.836;2022-12-07T05:55:43;23.10;;;14.00;;
34471;SDS011;20710;49.976;19.836;2022-12-07T06:01:47;21.48;;;13.20;;
34471;SDS011;20710;49.976;19.836;2022-12-07T06:07:56;19.10;;;12.00;;
34471;SDS011;20710;49.976;19.836;2022-12-07T06:14:03;16.87;;;11.12;;
34471;SDS011;20710;49.976;19.836;2022-12-07T06:20:05;17.90;;;11.43;;
34471;SDS011;20710;49.976;19.836;2022-12-07T06:26:17;19.00;;;12.10;;
34471;SDS011;20710;49.976;19.836;2022-12-07T06:32:22;22.58;;;12.60;;
34471;SDS011;20710;49.976;19.836;2022-12-07T06:38:36;20.85;;;12.28;;
34471;SDS011;20710;49.976;19.836;2022-12-07T06:44:40;17.85;;;10.32;;
34471;SDS011;20710;49.976;19.836;2022-12-07T06:50:44;19.07;;;12.10;;
34471;SDS011;20710;49.976;19.836;2022-12-07T06:56:54;22.22;;;12.65;;
34471;SDS011;20710;49.976;19.836;2022-12-07T07:02:58;22.95;;;13.83;;
34471;SDS011;20710;49.976;19.836;2022-12-07T07:09:26;22.07;;;13.68;;
34471;SDS011;20710;49.976;19.836;2022-12-07T07:15:33;22.93;;;15.75;;
34471;SDS011;20710;49.976;19.836;2022-12-07T07:21:39;30.52;;;17.10;;
34471;SDS011;20710;49.976;19.836;2022-12-07T07:27:44;27.85;;;16.00;;
34471;SDS011;20710;49.976;19.836;2022-12-07T07:33:50;28.70;;;17.42;;
34471;SDS011;20710;49.976;19.836;2022-12-07T07:39:54;25.15;;;14.33;;
34471;SDS011;20710;49.976;19.836;2022-12-07T07:46:04;29.25;;;16.95;;
34471;SDS011;20710;49.976;19.836;2022-12-07T07:52:05;32.40;;;18.00;;
34471;SDS011;20710;49.976;19.836;2022-12-07T07:58:11;23.25;;;14.05;;
34471;SDS011;20710;49.976;19.836;2022-12-07T08:04:13;24.98;;;14.93;;
34471;SDS011;20710;49.976;19.836;2022-12-07T08:10:15;28.05;;;15.00;;
34471;SDS011;20710;49.976;19.836;2022-12-07T08:16:17;30.23;;;17.20;;
34471;SDS011;20710;49.976;19.836;2022-12-07T08:22:19;27.60;;;15.23;;
34471;SDS011;20710;49.976;19.836;2022-12-07T08:28:22;30.95;;;18.23;;
34471;SDS011;20710;49.976;19.836;2022-12-07T08:34:24;32.90;;;18.70;;
34471;SDS011;20710;49.976;19.836;2022-12-07T08:40:25;36.80;;;20.30;;
34471;SDS011;20710;49.976;19.836;2022-12-07T08:52:38;27.45;;;14.43;;
34471;SDS011;20710;49.976;19.836;2022-12-07T08:58:41;21.42;;;12.60;;
34471;SDS011;20710;49.976;19.836;2022-12-07T09:04:44;21.25;;;12.20;;
34471;SDS011;20710;49.976;19.836;2022-12-07T09:10:45;22.20;;;11.45;;
34471;SDS011;20710;49.976;19.836;2022-12-07T09:16:48;20.40;;;12.60;;
34471;SDS011;20710;49.976;19.836;2022-12-07T09:22:51;20.35;;;11.15;;
34471;SDS011;20710;49.976;19.836;2022-12-07T09:28:52;20.12;;;13.00;;
34471;SDS011;20710;49.976;19.836;2022-12-07T09:34:54;24.18;;;13.10;;
34471;SDS011;20710;49.976;19.836;2022-12-07T09:40:56;26.37;;;13.95;;
34471;SDS011;20710;49.976;19.836;2022-12-07T09:46:58;21.82;;;13.32;;
34471;SDS011;20710;49.976;19.836;2022-12-07T09:53:13;20.30;;;11.73;;
34471;SDS011;20710;49.976;19.836;2022-12-07T09:59:16;18.95;;;11.65;;
34471;SDS011;20710;49.976;19.836;2022-12-07T10:05:22;30.10;;;17.15;;
34471;SDS011;20710;49.976;19.836;2022-12-07T10:18:25;21.90;;;12.35;;
34471;SDS011;20710;49.976;19.836;2022-12-07T10:24:39;19.50;;;12.75;;
34471;SDS011;20710;49.976;19.836;2022-12-07T10:30:47;20.92;;;12.20;;
34471;SDS011;20710;49.976;19.836;2022-12-07T10:36:53;23.50;;;11.68;;
34471;SDS011;20710;49.976;19.836;2022-12-07T10:43:15;18.10;;;10.58;;
34471;SDS011;20710;49.976;19.836;2022-12-07T11:21:58;19.92;;;11.73;;
34471;SDS011;20710;49.976;19.836;2022-12-07T11:41:13;11.85;;;7.30;;
34471;SDS011;20710;49.976;19.836;2022-12-07T11:53:58;11.08;;;7.33;;
34471;SDS011;20710;49.976;19.836;2022-12-07T12:00:19;12.50;;;7.75;;
34471;SDS011;20710;49.976;19.836;2022-12-07T12:06:21;12.20;;;7.20;;
34471;SDS011;20710;49.976;19.836;2022-12-07T12:25:34;10.35;;;5.65;;
34471;SDS011;20710;49.976;19.836;2022-12-07T12:31:37;8.03;;;4.72;;
34471;SDS011;20710;49.976;19.836;2022-12-07T12:37:41;8.78;;;5.35;;
34471;SDS011;20710;49.976;19.836;2022-12-07T12:43:49;9.75;;;5.47;;
34471;SDS011;20710;49.976;19.836;2022-12-07T12:50:35;9.50;;;5.45;;
34471;SDS011;20710;49.976;19.836;2022-12-07T13:02:50;7.35;;;5.75;;
34471;SDS011;20710;49.976;19.836;2022-12-07T13:08:57;11.53;;;6.40;;
34471;SDS011;20710;49.976;19.836;2022-12-07T13:15:01;8.90;;;5.05;;
34471;SDS011;20710;49.976;19.836;2022-12-07T13:27:14;9.40;;;5.28;;
34471;SDS011;20710;49.976;19.836;2022-12-07T13:33:16;12.43;;;6.33;;
34471;SDS011;20710;49.976;19.836;2022-12-07T13:39:20;13.32;;;7.60;;
34471;SDS011;20710;49.976;19.836;2022-12-07T13:45:33;13.68;;;7.15;;
34471;SDS011;20710;49.976;19.836;2022-12-07T13:51:50;12.58;;;5.87;;
34471;SDS011;20710;49.976;19.836;2022-12-07T13:57:53;12.73;;;7.15;;
34471;SDS011;20710;49.976;19.836;2022-12-07T14:03:56;16.50;;;7.55;;
34471;SDS011;20710;49.976;19.836;2022-12-07T14:10:53;16.60;;;8.53;;
34471;SDS011;20710;49.976;19.836;2022-12-07T14:17:28;17.48;;;8.78;;
34471;SDS011;20710;49.976;19.836;2022-12-07T14:23:23;17.95;;;8.70;;
34471;SDS011;20710;49.976;19.836;2022-12-07T14:35:34;12.10;;;7.53;;
34471;SDS011;20710;49.976;19.836;2022-12-07T14:41:40;11.38;;;7.12;;
34471;SDS011;20710;49.976;19.836;2022-12-07T14:47:54;12.10;;;6.37;;
34471;SDS011;20710;49.976;19.836;2022-12-07T14:53:56;10.43;;;6.60;;
34471;SDS011;20710;49.976;19.836;2022-12-07T14:59:58;11.33;;;6.08;;
34471;SDS011;20710;49.976;19.836;2022-12-07T15:05:59;13.18;;;7.33;;
34471;SDS011;20710;49.976;19.836;2022-12-07T15:12:01;15.15;;;7.72;;
34471;SDS011;20710;49.976;19.836;2022-12-07T15:18:03;16.52;;;8.73;;
34471;SDS011;20710;49.976;19.836;2022-12-07T15:24:05;15.75;;;8.43;;
34471;SDS011;20710;49.976;19.836;2022-12-07T15:30:06;23.52;;;11.05;;
34471;SDS011;20710;49.976;19.836;2022-12-07T15:36:11;20.05;;;10.60;;
34471;SDS011;20710;49.976;19.836;2022-12-07T15:42:25;24.33;;;14.63;;
34471;SDS011;20710;49.976;19.836;2022-12-07T15:48:27;31.85;;;16.70;;
34471;SDS011;20710;49.976;19.836;2022-12-07T15:54:29;34.20;;;17.70;;
34471;SDS011;20710;49.976;19.836;2022-12-07T16:00:31;30.23;;;15.08;;
34471;SDS011;20710;49.976;19.836;2022-12-07T16:06:32;26.25;;;14.47;;
34471;SDS011;20710;49.976;19.836;2022-12-07T16:12:39;35.33;;;17.23;;
34471;SDS011;20710;49.976;19.836;2022-12-07T16:18:39;28.87;;;14.73;;
34471;SDS011;20710;49.976;19.836;2022-12-07T16:24:40;24.87;;;13.75;;
34471;SDS011;20710;49.976;19.836;2022-12-07T16:30:42;23.12;;;12.85;;
34471;SDS011;20710;49.976;19.836;2022-12-07T16:36:46;23.30;;;11.85;;
34471;SDS011;20710;49.976;19.836;2022-12-07T16:42:54;21.37;;;11.75;;
34471;SDS011;20710;49.976;19.836;2022-12-07T16:48:53;17.45;;;9.58;;
34471;SDS011;20710;49.976;19.836;2022-12-07T16:54:56;16.73;;;9.88;;
34471;SDS011;20710;49.976;19.836;2022-12-07T17:00:58;16.70;;;9.85;;
34471;SDS011;20710;49.976;19.836;2022-12-07T17:07:00;21.33;;;10.20;;
34471;SDS011;20710;49.976;19.836;2022-12-07T17:13:03;19.40;;;11.45;;
34471;SDS011;20710;49.976;19.836;2022-12-07T17:19:09;33.28;;;14.87;;
34471;SDS011;20710;49.976;19.836;2022-12-07T17:31:16;22.73;;;12.70;;
34471;SDS011;20710;49.976;19.836;2022-12-07T17:37:21;28.97;;;12.87;;
34471;SDS011;20710;49.976;19.836;2022-12-07T17:43:23;29.50;;;15.08;;
34471;SDS011;20710;49.976;19.836;2022-12-07T17:49:25;29.60;;;16.50;;
34471;SDS011;20710;49.976;19.836;2022-12-07T17:55:27;41.13;;;18.48;;
34471;SDS011;20710;49.976;19.836;2022-12-07T18:01:30;41.33;;;15.30;;
34471;SDS011;20710;49.976;19.836;2022-12-07T18:07:34;38.45;;;16.30;;
34471;SDS011;20710;49.976;19.836;2022-12-07T18:13:35;23.38;;;12.60;;
34471;SDS011;20710;49.976;19.836;2022-12-07T18:19:37;16.15;;;8.58;;
34471;SDS011;20710;49.976;19.836;2022-12-07T18:25:39;14.80;;;7.78;;
34471;SDS011;20710;49.976;19.836;2022-12-07T18:31:42;11.38;;;6.67;;
34471;SDS011;20710;49.976;19.836;2022-12-07T18:37:47;12.58;;;7.20;;
34471;SDS011;20710;49.976;19.836;2022-12-07T18:43:48;12.93;;;7.00;;
34471;SDS011;20710;49.976;19.836;2022-12-07T18:49:54;16.65;;;8.43;;
34471;SDS011;20710;49.976;19.836;2022-12-07T18:56:02;19.73;;;8.33;;
34471;SDS011;20710;49.976;19.836;2022-12-07T19:02:10;19.87;;;9.05;;
34471;SDS011;20710;49.976;19.836;2022-12-07T19:08:12;24.35;;;11.38;;
34471;SDS011;20710;49.976;19.836;2022-12-07T19:14:27;30.95;;;12.28;;
34471;SDS011;20710;49.976;19.836;2022-12-07T19:20:36;33.85;;;17.73;;
34471;SDS011;20710;49.976;19.836;2022-12-07T19:26:39;45.52;;;19.75;;
34471;SDS011;20710;49.976;19.836;2022-12-07T19:32:44;39.83;;;18.90;;
34471;SDS011;20710;49.976;19.836;2022-12-07T19:38:45;35.95;;;17.60;;
34471;SDS011;20710;49.976;19.836;2022-12-07T19:44:47;42.00;;;17.20;;
34471;SDS011;20710;49.976;19.836;2022-12-07T19:50:49;41.42;;;16.73;;
34471;SDS011;20710;49.976;19.836;2022-12-07T19:56:52;39.08;;;16.57;;
34471;SDS011;20710;49.976;19.836;2022-12-07T20:02:54;32.30;;;14.75;;
34471;SDS011;20710;49.976;19.836;2022-12-07T20:08:56;27.65;;;13.13;;
34471;SDS011;20710;49.976;19.836;2022-12-07T20:14:59;23.55;;;13.10;;
34471;SDS011;20710;49.976;19.836;2022-12-07T20:21:01;21.02;;;11.38;;
34471;SDS011;20710;49.976;19.836;2022-12-07T20:27:03;21.05;;;10.70;;
34471;SDS011;20710;49.976;19.836;2022-12-07T20:33:07;19.12;;;9.15;;
34471;SDS011;20710;49.976;19.836;2022-12-07T20:39:08;17.25;;;8.90;;
34471;SDS011;20710;49.976;19.836;2022-12-07T20:45:10;17.12;;;9.35;;
34471;SDS011;20710;49.976;19.836;2022-12-07T20:51:12;14.73;;;8.40;;
34471;SDS011;20710;49.976;19.836;2022-12-07T20:57:13;20.30;;;8.30;;
34471;SDS011;20710;49.976;19.836;2022-12-07T21:03:15;17.32;;;8.53;;
34471;SDS011;20710;49.976;19.836;2022-12-07T21:09:17;16.23;;;8.33;;
34471;SDS011;20710;49.976;19.836;2022-12-07T21:15:28;17.57;;;8.28;;
34471;SDS011;20710;49.976;19.836;2022-12-07T21:21:31;15.83;;;7.42;;
34471;SDS011;20710;49.976;19.836;2022-12-07T21:27:34;14.73;;;7.12;;
34471;SDS011;20710;49.976;19.836;2022-12-07T21:33:35;13.75;;;6.25;;
34471;SDS011;20710;49.976;19.836;2022-12-07T21:39:38;15.43;;;6.92;;
34471;SDS011;20710;49.976;19.836;2022-12-07T21:45:40;13.78;;;6.58;;
34471;SDS011;20710;49.976;19.836;2022-12-07T21:51:42;13.43;;;6.08;;
34471;SDS011;20710;49.976;19.836;2022-12-07T21:57:44;15.40;;;6.08;;
34471;SDS011;20710;49.976;19.836;2022-12-07T22:03:47;13.65;;;5.80;;
34471;SDS011;20710;49.976;19.836;2022-12-07T22:09:48;17.92;;;6.00;;
34471;SDS011;20710;49.976;19.836;2022-12-07T22:15:50;13.13;;;5.45;;
34471;SDS011;20710;49.976;19.836;2022-12-07T22:21:51;11.63;;;5.60;;
34471;SDS011;20710;49.976;19.836;2022-12-07T22:27:52;11.55;;;4.95;;
34471;SDS011;20710;49.976;19.836;2022-12-07T22:33:54;12.15;;;5.35;;
34471;SDS011;20710;49.976;19.836;2022-12-07T22:39:55;11.15;;;5.50;;
34471;SDS011;20710;49.976;19.836;2022-12-07T22:45:57;12.23;;;4.80;;
34471;SDS011;20710;49.976;19.836;2022-12-07T22:52:00;10.48;;;4.58;;
34471;SDS011;20710;49.976;19.836;2022-12-07T22:58:02;9.73;;;4.65;;
34471;SDS011;20710;49.976;19.836;2022-12-07T23:04:04;10.30;;;4.37;;
34471;SDS011;20710;49.976;19.836;2022-12-07T23:16:28;10.60;;;4.37;;
34471;SDS011;20710;49.976;19.836;2022-12-07T23:22:30;12.18;;;4.30;;
34471;SDS011;20710;49.976;19.836;2022-12-07T23:28:31;9.10;;;4.72;;
34471;SDS011;20710;49.976;19.836;2022-12-07T23:34:33;10.55;;;5.72;;
34471;SDS011;20710;49.976;19.836;2022-12-07T23:40:35;13.08;;;5.35;;
34471;SDS011;20710;49.976;19.836;2022-12-07T23:46:37;10.38;;;4.22;;
34471;SDS011;20710;49.976;19.836;2022-12-07T23:52:38;7.85;;;3.95;;
34471;SDS011;20710;49.976;19.836;2022-12-07T23:58:39;8.53;;;4.85;;
